Terminal Aerodrome Forecast
Issued by NWS Bismarck, ND

Home | Current Version | Previous Version | Text Only | Print | Product List | Glossary On
Versions: 1 2 3 4 5 6 7 8 9 10 11 12 13 14
000
FTUS43 KBIS 230528
TAFBIS
TAF
KBIS 230528Z 2306/2406 30018G28KT P6SM VCSH BKN035 BKN050
     FM230700 31016G24KT P6SM SCT015 OVC025
     FM231400 31018G27KT P6SM FEW025 SCT040
     FM231800 32020G29KT P6SM FEW045 SCT200
     FM240200 33013KT P6SM FEW060 FEW200=

USA.gov is the U.S. government's official web portal to all federal, state and local government web resources and services.